Youngstown, New York
Current Conditions -  °F | °C
As of 9:00 PM on Monday 20 Oct 2014 (Local Time) from CYSN Reporting Station
Rain Showers Rain Showers  
Wind Chill: 54°   Ceiling: 2800
Heat Index: 54°   Visibility: 10mi
Dew Point: 50°   Wind: 9mph
Humidity: 88%   Direction: 200°SSW
Pressure: 29.8"   Gusts: NA
Location:  43.25°N, 79.05°W
Report Text: CYSN 210100Z 20008KT 10SM -SHRA OVC028 12/10 A2980 RMK SC8 LAST STFD OBS / NEXT 211100 UTC SLP094
Loading
Personal Weather Stations






























Interactive Weather Map
Tropical Storm Tracking
New forecast layout! Learn more

10-Day Weather Forecast

Advertisements
Track Severe Weather on mobile